createdAt,value
2018-12-23T00:59:12.177Z,10.67
2018-12-23T01:30:56.825Z,12.07
2018-12-23T01:33:27.063Z,12.60
2018-12-23T01:35:56.950Z,13.20
2018-12-23T01:38:27.510Z,12.70
2018-12-23T01:41:05.508Z,13.33
2018-12-23T02:02:19.262Z,13.50
2018-12-23T02:04:56.750Z,13.33
2018-12-23T02:07:26.872Z,13.13
2018-12-23T02:09:56.774Z,12.43
2018-12-23T02:12:26.899Z,13.27
2018-12-23T02:14:57.011Z,11.87
2018-12-23T02:17:27.335Z,11.70
2018-12-23T02:48:19.753Z,17.40
2018-12-23T02:50:50.504Z,22.37
2018-12-23T03:12:04.603Z,15.10
2018-12-23T05:35:14.408Z,17.23
2018-12-23T05:37:44.314Z,16.80
2018-12-23T05:40:13.916Z,17.00
2018-12-23T05:42:44.041Z,16.23
2018-12-23T05:45:13.752Z,18.33
2018-12-23T05:47:43.893Z,16.57
2018-12-23T05:50:13.371Z,18.50
2018-12-23T05:52:43.299Z,17.60
2018-12-23T05:55:13.318Z,15.73
2018-12-23T05:57:42.935Z,16.30
2018-12-23T06:00:12.743Z,15.30
2018-12-23T06:02:42.426Z,17.47
2018-12-23T06:08:41.952Z,15.80
2018-12-23T06:11:12.178Z,19.73
2018-12-23T06:32:26.548Z,20.87
2018-12-23T06:34:55.945Z,15.00
2018-12-23T06:37:27.308Z,16.37
2018-12-23T06:39:56.904Z,35.00
2018-12-23T06:42:28.053Z,19.30
2018-12-23T06:44:57.858Z,19.47
2018-12-23T06:47:32.277Z,17.90
2018-12-23T06:50:06.799Z,19.07
2018-12-23T06:52:37.225Z,21.00
2018-12-23T06:55:07.753Z,19.77
2018-12-23T06:57:42.574Z,18.33
2018-12-23T07:00:12.299Z,17.60
2018-12-23T07:03:21.118Z,19.97
2018-12-23T07:44:53.852Z,19.27
2018-12-23T10:59:02.904Z,14.10
2018-12-23T11:01:32.728Z,12.83
2018-12-23T11:04:02.833Z,13.20
2018-12-23T11:06:33.365Z,13.20
2018-12-23T11:09:04.613Z,14.60
2018-12-23T11:11:37.289Z,13.87
2018-12-23T11:14:07.619Z,13.40
2018-12-23T11:16:38.755Z,14.33
2018-12-23T11:19:09.809Z,11.67
2018-12-23T11:21:43.398Z,13.53
2018-12-23T11:24:15.872Z,15.07
2018-12-23T11:26:45.475Z,14.50
2018-12-23T11:29:16.205Z,13.80
2018-12-23T11:31:47.760Z,15.63
2018-12-23T11:34:17.470Z,15.73
2018-12-23T11:36:47.282Z,16.57
2018-12-23T11:58:01.652Z,18.90
2018-12-23T12:00:31.678Z,17.37
2018-12-23T12:03:01.981Z,18.03
2018-12-23T12:05:32.007Z,18.80
2018-12-23T12:08:03.368Z,19.73
2018-12-23T12:10:43.518Z,20.03
2018-12-23T12:13:14.260Z,19.97
2018-12-23T12:15:44.674Z,19.93
2018-12-23T12:18:16.338Z,19.30
2018-12-23T12:20:48.085Z,19.53
2018-12-23T12:23:18.823Z,18.20
2018-12-23T12:25:58.948Z,19.27
2018-12-23T12:28:38.828Z,21.00
2018-12-23T12:31:21.432Z,21.80
2018-12-23T12:33:55.137Z,20.73
2018-12-23T12:36:29.967Z,19.83
2018-12-23T12:39:04.794Z,18.80
2018-12-23T12:41:38.391Z,19.37
2018-12-23T13:21:55.351Z,16.17
2018-12-23T18:24:21.915Z,9.57
2018-12-23T18:26:51.958Z,9.53
2018-12-23T18:29:35.045Z,10.27
2018-12-23T18:32:05.909Z,11.70
2018-12-23T18:34:36.004Z,11.70
2018-12-23T18:37:05.821Z,11.30
2018-12-23T18:39:36.748Z,10.57
2018-12-23T18:42:06.884Z,10.17
2018-12-23T18:44:37.740Z,10.27
2018-12-23T18:47:08.061Z,9.40
2018-12-23T18:49:38.276Z,9.57
2018-12-23T18:52:08.172Z,8.13
2018-12-23T19:32:20.612Z,11.43
2018-12-23T19:34:57.064Z,10.83
2018-12-23T19:37:35.289Z,11.80
2018-12-23T19:40:15.116Z,10.80
2018-12-23T19:42:51.203Z,10.53
2018-12-23T19:45:38.925Z,12.60
2018-12-23T20:06:58.517Z,10.17
2018-12-23T20:09:46.860Z,9.10
2018-12-23T20:12:21.487Z,9.00
2018-12-23T20:14:56.219Z,10.27
2018-12-23T20:17:31.663Z,10.50
2018-12-23T20:20:06.183Z,10.87
2018-12-23T20:22:40.802Z,11.20
2018-12-23T20:25:15.321Z,11.17
2018-12-23T20:27:49.340Z,11.77
2018-12-23T20:30:25.192Z,10.80
2018-12-23T20:33:01.452Z,12.00
2018-12-23T20:35:36.281Z,10.70
2018-12-23T20:38:11.725Z,10.03
2018-12-23T20:40:46.110Z,10.47
2018-12-23T20:43:20.463Z,9.47
2018-12-23T20:45:54.986Z,10.67
2018-12-23T20:48:28.788Z,9.00
2018-12-23T20:51:02.496Z,10.47
2018-12-23T20:53:36.812Z,10.27
2018-12-23T20:56:12.867Z,10.93
2018-12-23T20:58:47.803Z,11.23
2018-12-23T21:01:22.216Z,10.70
2018-12-23T21:03:56.749Z,10.60
2018-12-23T21:06:31.074Z,10.47
2018-12-23T21:09:06.414Z,11.90
2018-12-23T21:11:41.654Z,10.70
2018-12-23T21:14:17.057Z,11.67
2018-12-23T21:16:52.424Z,10.87
2018-12-23T21:19:26.953Z,11.23
2018-12-23T21:22:01.275Z,10.93
2018-12-23T21:24:35.785Z,10.57
2018-12-23T21:44:32.027Z,17.70
2018-12-23T21:47:06.125Z,18.43
2018-12-23T21:49:40.974Z,18.37
2018-12-23T21:52:15.799Z,15.63
2018-12-23T21:54:50.626Z,12.30
2018-12-23T21:57:24.954Z,12.13
2018-12-23T21:59:59.257Z,12.77
2018-12-23T22:02:34.396Z,15.05
2018-12-23T22:05:08.818Z,14.67
2018-12-23T22:07:42.825Z,14.83
2018-12-23T22:28:56.396Z,10.63
2018-12-23T22:31:26.394Z,11.87
2018-12-23T22:33:56.087Z,12.53
2018-12-23T22:36:26.440Z,10.60
2018-12-23T22:38:56.361Z,10.73
2018-12-23T22:41:28.080Z,9.70
2018-12-23T22:43:58.439Z,9.73
2018-12-23T22:46:28.880Z,9.70
2018-12-23T22:49:00.404Z,9.50
2018-12-23T22:51:32.068Z,11.17
2018-12-23T22:54:02.895Z,16.30
2018-12-23T22:56:33.313Z,15.60
2018-12-23T22:59:03.024Z,14.30
2018-12-23T23:01:32.960Z,13.53
2018-12-23T23:04:04.011Z,13.10
2018-12-23T23:06:33.687Z,12.23
2018-12-23T23:09:04.525Z,13.57
2018-12-23T23:11:34.060Z,11.50
2018-12-23T23:14:03.533Z,11.37
2018-12-23T23:16:34.892Z,10.07
2018-12-23T23:19:04.384Z,10.80
2018-12-23T23:21:34.398Z,12.47
2018-12-23T23:24:04.330Z,14.60
2018-12-23T23:26:34.054Z,18.97
2018-12-23T23:29:03.425Z,14.77
2018-12-23T23:31:33.059Z,13.77
2018-12-23T23:34:02.859Z,12.70
2018-12-23T23:36:32.448Z,12.30
2018-12-23T23:39:01.962Z,14.17
2018-12-23T23:41:31.371Z,14.93
2018-12-23T23:44:02.339Z,12.43
2018-12-23T23:46:32.057Z,12.77
2018-12-23T23:49:02.050Z,13.80
2018-12-23T23:51:31.538Z,12.67
2018-12-23T23:54:01.351Z,12.53
2018-12-23T23:56:31.563Z,13.27
2018-12-23T23:59:01.490Z,14.37
